Terminal Aerodrome Forecast
Issued by NWS

Home | Current Version | Previous Version | Graphics & Text | Print | Product List | Glossary On
Versions: 1 2 3 4 5 6 7 8 9 10 11 12 13 14 15
560
FTUS43 KICT 120537
TAFHUT
TAF
KHUT 120537Z 1206/1306 VRB05KT P6SM SCT250
     FM121000 32007KT P6SM SCT250
     FM121300 02010KT P6SM SCT015
     FM121700 03012KT P6SM SCT250
     FM130400 07007KT P6SM SCT250=

USA.gov is the U.S. government's official web portal to all federal, state and local government web resources and services.